METAR Formatted Surface Weather Observation
Issued by NWS

Home | Current Version | Previous Version | Text Only | Print | Product List | Glossary On
Versions: 1 2 3 4 5 6
000
SPZS31 NSTU 300917
MTRSPP
SPECI NSTU 300905Z 06008KT 4SM +SHRA VV004 26/26 A2980=



USA.gov is the U.S. government's official web portal to all federal, state and local government web resources and services.